sensor_id;sensor_type;location;lat;lon;timestamp;pressure;altitude;pressure_sealevel;temperature;humidity
3832;BME280;12460;42.662;23.288;2023-03-03T00:13:02;94585.06;;;4.35;72.08
3832;BME280;12460;42.662;23.288;2023-03-03T00:28:25;94570.47;;;4.29;72.60
3832;BME280;12460;42.662;23.288;2023-03-03T00:43:35;94566.72;;;4.58;72.39
3832;BME280;12460;42.662;23.288;2023-03-03T00:58:39;94546.72;;;4.72;71.92
3832;BME280;12460;42.662;23.288;2023-03-03T01:13:46;94528.94;;;4.62;71.49
3832;BME280;12460;42.662;23.288;2023-03-03T01:28:51;94530.34;;;4.69;71.21
3832;BME280;12460;42.662;23.288;2023-03-03T01:43:57;94521.59;;;5.04;70.66
3832;BME280;12460;42.662;23.288;2023-03-03T01:59:08;94504.31;;;4.79;71.52
3832;BME280;12460;42.662;23.288;2023-03-03T02:14:14;94509.66;;;4.90;71.12
3832;BME280;12460;42.662;23.288;2023-03-03T02:29:19;94513.28;;;4.59;71.69
3832;BME280;12460;42.662;23.288;2023-03-03T02:44:29;94508.91;;;4.64;72.59
3832;BME280;12460;42.662;23.288;2023-03-03T02:59:33;94506.03;;;4.82;72.41
3832;BME280;12460;42.662;23.288;2023-03-03T03:14:45;94490.59;;;4.81;72.01
3832;BME280;12460;42.662;23.288;2023-03-03T03:29:50;94487.47;;;4.72;71.82
3832;BME280;12460;42.662;23.288;2023-03-03T03:44:55;94479.03;;;4.64;72.99
3832;BME280;12460;42.662;23.288;2023-03-03T04:00:00;94476.69;;;4.55;72.51
3832;BME280;12460;42.662;23.288;2023-03-03T04:15:14;94467.66;;;4.49;73.77
3832;BME280;12460;42.662;23.288;2023-03-03T04:30:18;94470.16;;;4.92;73.07
3832;BME280;12460;42.662;23.288;2023-03-03T04:45:24;94468.41;;;5.02;72.79
3832;BME280;12460;42.662;23.288;2023-03-03T05:00:30;94469.63;;;4.93;72.34
3832;BME280;12460;42.662;23.288;2023-03-03T05:15:36;94480.63;;;5.25;72.05
3832;BME280;12460;42.662;23.288;2023-03-03T05:30:40;94483.47;;;5.46;72.18
3832;BME280;12460;42.662;23.288;2023-03-03T05:45:45;94491.25;;;5.01;73.26
3832;BME280;12460;42.662;23.288;2023-03-03T06:00:49;94494.69;;;4.93;73.30
3832;BME280;12460;42.662;23.288;2023-03-03T06:15:54;94500.00;;;4.65;74.48
3832;BME280;12460;42.662;23.288;2023-03-03T06:31:00;94512.66;;;4.66;74.38
3832;BME280;12460;42.662;23.288;2023-03-03T06:46:05;94502.59;;;4.63;74.39
3832;BME280;12460;42.662;23.288;2023-03-03T07:01:15;94512.69;;;5.06;72.73
3832;BME280;12460;42.662;23.288;2023-03-03T07:16:29;94512.25;;;5.15;73.72
3832;BME280;12460;42.662;23.288;2023-03-03T07:31:39;94524.34;;;5.56;72.98
3832;BME280;12460;42.662;23.288;2023-03-03T07:46:48;94514.31;;;5.87;72.16
3832;BME280;12460;42.662;23.288;2023-03-03T08:01:55;94508.34;;;6.24;70.88
3832;BME280;12460;42.662;23.288;2023-03-03T08:17:12;94513.06;;;6.50;69.25
3832;BME280;12460;42.662;23.288;2023-03-03T08:32:18;94495.09;;;6.87;69.20
3832;BME280;12460;42.662;23.288;2023-03-03T08:47:24;94491.28;;;7.33;68.38
3832;BME280;12460;42.662;23.288;2023-03-03T09:02:29;94491.09;;;7.67;67.82
3832;BME280;12460;42.662;23.288;2023-03-03T09:17:34;94488.09;;;7.29;68.01
3832;BME280;12460;42.662;23.288;2023-03-03T09:32:40;94491.88;;;7.39;67.12
3832;BME280;12460;42.662;23.288;2023-03-03T10:03:58;94492.75;;;7.27;67.60
3832;BME280;12460;42.662;23.288;2023-03-03T10:19:30;94478.94;;;7.64;66.40
3832;BME280;12460;42.662;23.288;2023-03-03T11:21:36;94430.72;;;8.02;66.35
3832;BME280;12460;42.662;23.288;2023-03-03T11:36:48;94422.72;;;8.21;66.05
3832;BME280;12460;42.662;23.288;2023-03-03T11:52:46;94415.09;;;8.29;66.58
3832;BME280;12460;42.662;23.288;2023-03-03T12:23:10;94405.38;;;8.60;66.60
3832;BME280;12460;42.662;23.288;2023-03-03T13:09:38;94404.06;;;8.69;68.26
3832;BME280;12460;42.662;23.288;2023-03-03T13:41:00;94404.59;;;8.82;67.21
3832;BME280;12460;42.662;23.288;2023-03-03T13:56:21;94392.50;;;8.65;66.75
3832;BME280;12460;42.662;23.288;2023-03-03T14:11:51;94394.91;;;8.61;67.47
3832;BME280;12460;42.662;23.288;2023-03-03T14:27:00;94380.72;;;8.51;67.10
3832;BME280;12460;42.662;23.288;2023-03-03T14:42:14;94383.72;;;8.53;67.21
3832;BME280;12460;42.662;23.288;2023-03-03T14:57:38;94379.22;;;8.50;67.78
3832;BME280;12460;42.662;23.288;2023-03-03T15:12:49;94384.09;;;8.50;67.82
3832;BME280;12460;42.662;23.288;2023-03-03T15:43:51;94378.84;;;8.31;68.14
3832;BME280;12460;42.662;23.288;2023-03-03T15:59:16;94384.81;;;8.20;68.70
3832;BME280;12460;42.662;23.288;2023-03-03T16:14:53;94419.19;;;8.20;69.02
3832;BME280;12460;42.662;23.288;2023-03-03T16:30:09;94415.06;;;8.14;69.24
3832;BME280;12460;42.662;23.288;2023-03-03T16:45:33;94439.31;;;8.04;68.91
3832;BME280;12460;42.662;23.288;2023-03-03T17:00:54;94452.94;;;8.00;69.37
3832;BME280;12460;42.662;23.288;2023-03-03T17:46:38;94497.84;;;7.79;70.21
3832;BME280;12460;42.662;23.288;2023-03-03T18:33:06;94524.44;;;7.57;70.01
3832;BME280;12460;42.662;23.288;2023-03-03T18:48:12;94533.53;;;7.50;69.72
3832;BME280;12460;42.662;23.288;2023-03-03T19:03:36;94547.72;;;7.52;69.52
3832;BME280;12460;42.662;23.288;2023-03-03T19:34:06;94568.34;;;7.70;69.88
3832;BME280;12460;42.662;23.288;2023-03-03T19:49:57;94551.75;;;7.72;69.28
3832;BME280;12460;42.662;23.288;2023-03-03T20:05:42;94558.47;;;7.77;69.49
3832;BME280;12460;42.662;23.288;2023-03-03T20:21:08;94565.16;;;7.73;68.80
3832;BME280;12460;42.662;23.288;2023-03-03T20:36:34;94553.41;;;7.75;69.54
3832;BME280;12460;42.662;23.288;2023-03-03T21:07:24;94524.09;;;7.68;69.59
3832;BME280;12460;42.662;23.288;2023-03-03T21:22:29;94544.06;;;7.65;69.95
3832;BME280;12460;42.662;23.288;2023-03-03T21:37:54;94564.34;;;7.58;69.91
3832;BME280;12460;42.662;23.288;2023-03-03T21:52:59;94559.97;;;7.42;69.98
3832;BME280;12460;42.662;23.288;2023-03-03T22:08:04;94554.56;;;7.16;69.64
3832;BME280;12460;42.662;23.288;2023-03-03T22:23:08;94563.25;;;7.04;70.73
3832;BME280;12460;42.662;23.288;2023-03-03T22:38:14;94565.34;;;7.12;70.35
3832;BME280;12460;42.662;23.288;2023-03-03T22:53:20;94580.28;;;7.14;70.51
3832;BME280;12460;42.662;23.288;2023-03-03T23:08:23;94590.34;;;7.17;71.36
3832;BME280;12460;42.662;23.288;2023-03-03T23:23:29;94585.00;;;7.19;71.33
3832;BME280;12460;42.662;23.288;2023-03-03T23:38:34;94587.03;;;7.19;71.25
3832;BME280;12460;42.662;23.288;2023-03-03T23:53:38;94575.47;;;7.22;70.70
